createdAt,value
2022-11-21T00:01:50.203Z,21.7
2022-11-21T00:06:52.534Z,22.4
2022-11-21T00:11:54.749Z,23.1
2022-11-21T00:16:58.337Z,22.8
2022-11-21T00:22:00.856Z,23.1
2022-11-21T00:27:03.016Z,24.2
2022-11-21T00:32:05.089Z,23
2022-11-21T00:37:07.461Z,23.8
2022-11-21T00:38:19.908Z,26.4
2022-11-21T00:43:22.077Z,22.9
2022-11-21T00:48:24.141Z,21.9
2022-11-21T00:53:26.175Z,21.8
2022-11-21T00:58:28.460Z,23.6
2022-11-21T01:03:30.690Z,25.7
2022-11-21T01:08:32.665Z,23.5
2022-11-21T01:13:34.749Z,23.8
2022-11-21T01:18:36.859Z,23.7
2022-11-21T01:23:38.780Z,23
2022-11-21T01:28:40.811Z,22.9
2022-11-21T01:33:42.944Z,22.9
2022-11-21T01:38:44.898Z,22
2022-11-21T01:43:47.511Z,22
2022-11-21T01:48:49.600Z,22
2022-11-21T01:53:51.538Z,21.9
2022-11-21T01:58:53.599Z,21.6
2022-11-21T02:03:55.547Z,22.1
2022-11-21T02:08:57.666Z,22.7
2022-11-21T02:13:59.663Z,21.4
2022-11-21T02:19:02.403Z,20.8
2022-11-21T02:24:04.366Z,20.4
2022-11-21T02:29:06.390Z,19.9
2022-11-21T02:34:08.467Z,19.7
2022-11-21T02:39:10.747Z,20.1
2022-11-21T02:44:13.258Z,19.6
2022-11-21T02:49:15.471Z,19.3
2022-11-21T02:54:17.857Z,19.5
2022-11-21T02:59:20.105Z,19.1
2022-11-21T03:04:22.074Z,20
2022-11-21T03:09:24.333Z,21.3
2022-11-21T03:14:27.260Z,21.3
2022-11-21T03:19:30.593Z,20.5
2022-11-21T03:24:32.883Z,23.1
2022-11-21T03:29:34.927Z,21.1
2022-11-21T03:34:36.996Z,20.4
2022-11-21T03:39:39.055Z,20.2
2022-11-21T03:44:41.443Z,20.6
2022-11-21T03:49:43.491Z,20.7
2022-11-21T03:54:45.716Z,21.6
2022-11-21T03:59:48.117Z,21.9
2022-11-21T04:04:50.096Z,22
2022-11-21T04:09:52.304Z,20.4
2022-11-21T04:14:54.246Z,20.4
2022-11-21T04:19:56.332Z,19.2
2022-11-21T04:24:58.409Z,20.4
2022-11-21T04:30:00.637Z,19.1
2022-11-21T04:35:02.934Z,19.5
2022-11-21T04:40:05.337Z,18.9
2022-11-21T04:45:07.733Z,20.3
2022-11-21T04:50:09.675Z,20
2022-11-21T04:55:11.667Z,19.3
2022-11-21T05:00:13.906Z,19.6
2022-11-21T05:05:14.206Z,50.4
2022-11-21T05:10:16.282Z,19.6
2022-11-21T05:15:25.331Z,19.5
2022-11-21T05:20:27.594Z,20.5
2022-11-21T05:25:34.861Z,19.3
2022-11-21T05:30:37.090Z,18.7
2022-11-21T05:35:44.055Z,18.8
2022-11-21T05:40:46.307Z,17.7
2022-11-21T05:45:49.165Z,17.9
2022-11-21T05:50:51.954Z,16.5
2022-11-21T05:55:53.972Z,16.2
2022-11-21T06:01:00.502Z,16.7
2022-11-21T06:06:02.634Z,17.9
2022-11-21T06:11:04.875Z,16.2
2022-11-21T06:16:06.872Z,15.9
2022-11-21T06:21:08.904Z,16.3
2022-11-21T06:26:11.166Z,16.4
2022-11-21T06:31:13.283Z,17.1
2022-11-21T06:36:15.247Z,16.4
2022-11-21T06:41:17.499Z,18.2
2022-11-21T06:46:20.655Z,17.9
2022-11-21T06:51:22.632Z,19.1
2022-11-21T06:56:24.814Z,32.6
2022-11-21T07:01:25.371Z,19.5
2022-11-21T07:06:27.522Z,19.2
2022-11-21T07:11:29.584Z,18.5
2022-11-21T07:16:31.507Z,19.2
2022-11-21T07:21:33.528Z,19.6
2022-11-21T07:26:35.853Z,19.5
2022-11-21T07:31:37.760Z,21.2
2022-11-21T07:36:39.743Z,20.4
2022-11-21T07:41:41.675Z,18.5
2022-11-21T07:46:43.966Z,17.1
2022-11-21T07:51:45.997Z,17
2022-11-21T07:56:48.558Z,16.7
2022-11-21T08:01:50.633Z,17.1
2022-11-21T08:06:52.859Z,16.3
2022-11-21T08:11:54.992Z,15.8
2022-11-21T08:16:57.079Z,22.6
2022-11-21T08:21:57.497Z,16.1
2022-11-21T08:26:59.445Z,14.4
2022-11-21T08:32:01.469Z,13.9
2022-11-21T08:37:03.466Z,13.5
2022-11-21T08:42:05.606Z,13.2
2022-11-21T08:47:07.539Z,13.7
2022-11-21T08:52:09.685Z,12.6
2022-11-21T08:57:12.067Z,11
2022-11-21T09:02:14.444Z,10.9
2022-11-21T09:07:16.454Z,10.8
2022-11-21T09:12:18.721Z,10.2
2022-11-21T09:17:20.721Z,10.1
2022-11-21T09:22:22.968Z,8.9
2022-11-21T09:27:24.969Z,8.4
2022-11-21T09:32:27.028Z,7.8
2022-11-21T09:37:29.115Z,7.5
2022-11-21T09:42:31.095Z,7
2022-11-21T09:47:33.474Z,6.4
2022-11-21T09:52:35.430Z,6.7
2022-11-21T09:57:37.521Z,6.4
2022-11-21T10:02:39.618Z,5.4
2022-11-21T10:07:41.807Z,5.4
2022-11-21T10:12:44.148Z,5
2022-11-21T10:17:48.008Z,5
2022-11-21T10:22:50.528Z,5
2022-11-21T10:27:52.560Z,4.7
2022-11-21T10:32:54.506Z,5
2022-11-21T10:37:56.551Z,5.1
2022-11-21T10:42:58.541Z,5.2
2022-11-21T10:48:08.123Z,5.4
2022-11-21T10:53:10.557Z,5.8
2022-11-21T10:58:12.798Z,5.6
2022-11-21T11:03:14.783Z,5.8
2022-11-21T11:08:16.745Z,5.8
2022-11-21T11:13:47.648Z,6.2
2022-11-21T11:18:22.584Z,6.1
2022-11-21T11:23:25.152Z,7
2022-11-21T11:28:27.231Z,6.7
2022-11-21T11:33:29.231Z,6.4
2022-11-21T11:38:31.172Z,7
2022-11-21T11:43:33.220Z,7.2
2022-11-21T11:49:17.095Z,7.1
2022-11-21T11:53:43.819Z,6.9
2022-11-21T11:58:46.063Z,7.3
2022-11-21T12:03:50.946Z,7.4
2022-11-21T12:08:49.406Z,7.5
2022-11-21T12:13:51.691Z,7.3
2022-11-21T12:18:53.788Z,7
2022-11-21T12:23:55.960Z,6.9
2022-11-21T12:28:58.070Z,6.6
2022-11-21T12:34:00.119Z,6.1
2022-11-21T12:39:02.128Z,6.8
2022-11-21T12:44:04.262Z,6.4
2022-11-21T12:49:06.351Z,6.8
2022-11-21T12:54:08.268Z,7.1
2022-11-21T12:59:10.796Z,6.9
2022-11-21T13:04:13.074Z,6.8
2022-11-21T13:09:15.030Z,6.6
2022-11-21T13:14:16.986Z,6.9
2022-11-21T13:19:18.974Z,7.1
2022-11-21T13:24:21.006Z,6.5
2022-11-21T13:29:23.100Z,5.9
2022-11-21T13:34:25.092Z,6.1
2022-11-21T13:39:28.964Z,7.1
2022-11-21T13:44:32.380Z,7.1
2022-11-21T13:49:34.731Z,9.1
2022-11-21T13:54:36.698Z,10.8
2022-11-21T13:59:38.722Z,11.9
2022-11-21T14:04:40.930Z,12.6
2022-11-21T14:09:42.885Z,11.5
2022-11-21T14:14:44.906Z,11.1
2022-11-21T14:19:46.902Z,11.1
2022-11-21T14:24:50.222Z,10.5
2022-11-21T14:29:52.239Z,8.8
2022-11-21T14:34:54.219Z,8
2022-11-21T14:39:58.214Z,8
2022-11-21T14:45:00.493Z,8.9
2022-11-21T14:50:08.268Z,9.9
2022-11-21T14:55:40.546Z,10.8
2022-11-21T15:00:57.814Z,10.7
2022-11-21T15:05:13.424Z,10
2022-11-21T15:10:32.444Z,10.2
2022-11-21T15:15:16.415Z,11.1
2022-11-21T15:20:18.384Z,11
2022-11-21T15:25:20.405Z,11.7
2022-11-21T15:30:22.514Z,11.1
2022-11-21T15:35:32.434Z,10.6
2022-11-21T15:40:24.716Z,10.2
2022-11-21T15:45:26.837Z,10.4
2022-11-21T15:50:28.900Z,10.3
2022-11-21T15:55:30.812Z,10.1
2022-11-21T16:00:33.075Z,10.6
2022-11-21T16:05:35.347Z,11.1
2022-11-21T16:10:37.387Z,11.2
2022-11-21T16:15:39.781Z,11.8
2022-11-21T16:20:42.594Z,12
2022-11-21T16:25:45.275Z,12.1
2022-11-21T16:30:48.463Z,18.9
2022-11-21T16:35:48.987Z,12.5
2022-11-21T16:40:51.213Z,12.7
2022-11-21T16:45:53.204Z,12.2
2022-11-21T16:50:55.408Z,12
2022-11-21T16:55:57.659Z,12
2022-11-21T17:01:00.281Z,14.7
2022-11-21T17:06:02.609Z,15.5
2022-11-21T17:11:04.865Z,14.9
2022-11-21T17:16:07.133Z,15.9
2022-11-21T17:21:09.149Z,15.5
2022-11-21T17:26:11.155Z,14.1
2022-11-21T17:31:13.171Z,12.7
2022-11-21T17:36:15.309Z,12
2022-11-21T17:41:17.321Z,12.7
2022-11-21T17:46:19.290Z,13.7
2022-11-21T17:51:21.591Z,14
2022-11-21T17:56:23.676Z,14.1
2022-11-21T18:01:26.044Z,15.4
2022-11-21T18:06:29.140Z,17.6
2022-11-21T18:11:40.111Z,17.4
2022-11-21T18:16:32.799Z,19.1
2022-11-21T18:21:34.846Z,17.1
2022-11-21T18:26:36.952Z,25
2022-11-21T18:31:37.384Z,17.8
2022-11-21T18:36:39.380Z,18.9
2022-11-21T18:41:41.360Z,20.6
2022-11-21T18:46:43.479Z,21.4
2022-11-21T18:51:45.749Z,21.3
2022-11-21T18:56:49.107Z,20.1
2022-11-21T19:01:51.137Z,21.6
2022-11-21T19:06:53.627Z,20.6
2022-11-21T19:11:55.573Z,20.9
2022-11-21T19:16:57.961Z,20.8
2022-11-21T19:22:00.226Z,18.8
2022-11-21T19:27:02.397Z,18.3
2022-11-21T19:32:04.491Z,18.1
2022-11-21T19:37:06.533Z,18
2022-11-21T19:42:08.711Z,18.4
2022-11-21T19:47:10.800Z,19.6
2022-11-21T19:52:13.297Z,18.6
2022-11-21T19:57:15.519Z,18.3
2022-11-21T20:02:17.597Z,18.2
2022-11-21T20:07:19.801Z,17.5
2022-11-21T20:12:22.167Z,16.9
2022-11-21T20:17:24.397Z,16.6
2022-11-21T20:22:26.421Z,16.7
2022-11-21T20:27:28.404Z,16.2
2022-11-21T20:32:30.443Z,16.9
2022-11-21T20:37:32.418Z,16.1
2022-11-21T20:42:34.478Z,15.9
2022-11-21T20:47:36.584Z,15.3
2022-11-21T20:57:44.828Z,18.7
2022-11-21T21:02:46.906Z,18.3
2022-11-21T21:07:49.507Z,17.8
2022-11-21T21:12:51.775Z,16.8
2022-11-21T21:17:53.745Z,17.9
2022-11-21T21:22:55.673Z,16.3
2022-11-21T21:27:58.022Z,16
2022-11-21T21:33:01.008Z,15.8
2022-11-21T21:38:09.173Z,16
2022-11-21T21:43:11.559Z,16
2022-11-21T21:48:13.521Z,15.7
2022-11-21T21:53:15.605Z,15.6
2022-11-21T21:58:17.759Z,16.1
2022-11-21T22:03:19.650Z,16.3
2022-11-21T22:08:21.865Z,15
2022-11-21T22:13:23.903Z,15.1
2022-11-21T22:18:25.864Z,15.1
2022-11-21T22:23:27.809Z,16.4
2022-11-21T22:28:29.854Z,16.1
2022-11-21T22:33:31.997Z,16.3
2022-11-21T22:38:33.936Z,16.3
2022-11-21T22:43:35.895Z,18.1
2022-11-21T22:48:38.280Z,19.8
2022-11-21T22:53:41.270Z,18.6
2022-11-21T22:58:43.480Z,18.6
2022-11-21T23:03:45.806Z,17.9
2022-11-21T23:08:48.033Z,18.7
2022-11-21T23:13:50.162Z,19.3
2022-11-21T23:18:52.204Z,18.9
2022-11-21T23:23:54.229Z,18.4
2022-11-21T23:28:56.256Z,29.7
2022-11-21T23:33:56.823Z,19.8
2022-11-21T23:38:58.883Z,20.6
2022-11-21T23:44:00.840Z,20.5
2022-11-21T23:49:02.920Z,20.3
2022-11-21T23:54:05.094Z,19.5
2022-11-21T23:59:07.057Z,18.9
